Time;durP1;ratioP1;P1;durP2;ratioP2;P2;SDS_P1;SDS_P2;PMS_P1;PMS_P2;Temp;Humidity;BMP_temperature;BMP_pressure;BME280_temperature;BME280_humidity;BME280_pressure;Samples;Min_cycle;Max_cycle;Signal;HPM_P1;HPM_P2
2021/07/15 00:01:24;;;;;;;6.47;2.50;;;;;;;14.48;94.18;100338.45;125709;1093;64291;-83
2021/07/15 00:03:51;;;;;;;4.40;2.13;;;;;;;14.45;94.14;100348.72;125884;1093;64374;-84
2021/07/15 00:06:35;;;;;;;5.43;2.03;;;;;;;14.43;94.49;100346.28;126313;1093;64230;-83
2021/07/15 00:09:04;;;;;;;5.23;2.27;;;;;;;14.41;94.92;100356.34;125606;1093;64217;-85
2021/07/15 00:11:35;;;;;;;3.73;2.17;;;;;;;14.42;94.69;100362.48;125176;1093;64293;-83
2021/07/15 00:14:03;;;;;;;3.67;2.30;;;;;;;14.44;94.65;100381.78;125125;1092;64291;-82
2021/07/15 00:16:31;;;;;;;5.33;1.93;;;;;;;14.41;94.38;100385.69;124987;1093;64364;-85
2021/07/15 00:18:59;;;;;;;3.87;2.40;;;;;;;14.39;94.58;100386.94;125034;1092;64246;-85
2021/07/15 00:21:27;;;;;;;7.13;2.93;;;;;;;14.34;94.41;100386.72;124842;1093;64306;-83
2021/07/15 00:23:54;;;;;;;4.20;2.45;;;;;;;14.30;94.66;100391.64;124938;1093;64322;-82
2021/07/15 00:26:24;;;;;;;8.37;2.83;;;;;;;14.27;94.50;100402.73;124979;1093;64291;-84
2021/07/15 00:28:54;;;;;;;5.97;2.70;;;;;;;14.21;94.21;100412.38;124806;1092;64280;-84
2021/07/15 00:31:21;;;;;;;6.03;2.57;;;;;;;14.20;94.70;100413.42;125006;1092;64387;-86
2021/07/15 00:33:48;;;;;;;3.87;2.53;;;;;;;14.21;95.22;100412.38;125008;1092;65389;-83
2021/07/15 00:36:16;;;;;;;4.93;2.70;;;;;;;14.23;95.20;100414.84;124896;1093;64355;-84
2021/07/15 00:38:43;;;;;;;4.70;2.73;;;;;;;14.24;95.20;100416.50;125042;1093;64762;-85
2021/07/15 00:41:11;;;;;;;4.63;2.87;;;;;;;14.24;95.71;100414.65;124940;1093;64600;-84
2021/07/15 00:43:38;;;;;;;4.70;2.40;;;;;;;14.27;96.04;100419.56;125086;1093;64348;-83
2021/07/15 00:46:05;;;;;;;3.70;2.57;;;;;;;14.30;96.14;100433.52;124879;1093;64314;-85
2021/07/15 00:48:33;;;;;;;6.80;3.10;;;;;;;14.33;96.04;100439.27;124977;1093;64217;-83
2021/07/15 00:51:01;;;;;;;3.13;2.20;;;;;;;14.35;96.98;100441.74;124995;1093;64285;-84
2021/07/15 00:53:28;;;;;;;7.23;2.10;;;;;;;14.37;97.22;100448.51;125246;1093;64404;-84
2021/07/15 00:55:55;;;;;;;8.43;2.90;;;;;;;14.39;96.99;100450.98;125114;1093;64310;-85
2021/07/15 00:58:22;;;;;;;3.90;2.83;;;;;;;14.45;96.63;100458.14;125404;1093;64245;-84
2021/07/15 01:00:50;;;;;;;2.73;2.00;;;;;;;14.51;97.36;100461.84;125279;1093;64371;-85
2021/07/15 01:03:20;;;;;;;3.10;2.30;;;;;;;14.56;97.40;100468.24;125626;1093;64291;-83
2021/07/15 01:05:53;;;;;;;7.37;2.70;;;;;;;14.62;97.08;100475.42;125383;1093;64420;-85
2021/07/15 01:08:21;;;;;;;3.03;2.10;;;;;;;14.68;96.83;100479.94;126187;1093;64246;-83
2021/07/15 01:10:55;;;;;;;3.17;1.80;;;;;;;14.74;97.11;100478.27;126643;1093;62365;-83
2021/07/15 01:13:48;;;;;;;6.30;2.13;;;;;;;14.80;96.90;100471.29;125395;1092;64329;-84
2021/07/15 01:16:30;;;;;;;7.63;2.67;;;;;;;14.85;96.36;100450.95;124972;1092;64195;-83
2021/07/15 01:19:20;;;;;;;7.30;2.03;;;;;;;14.90;95.80;100439.64;125131;1092;65141;-83
2021/07/15 01:22:20;;;;;;;2.50;1.80;;;;;;;14.94;95.86;100432.00;125006;1093;64288;-82
2021/07/15 01:25:36;;;;;;;6.60;2.30;;;;;;;14.96;95.99;100433.45;124951;1093;64316;-82
2021/07/15 01:28:05;;;;;;;5.73;2.18;;;;;;;14.97;95.70;100423.59;125006;1093;64303;-84
2021/07/15 01:30:47;;;;;;;4.63;2.47;;;;;;;14.97;95.07;100426.26;125136;1093;64201;-82
2021/07/15 01:33:26;;;;;;;5.70;2.53;;;;;;;14.94;95.17;100424.84;124965;1092;64393;-82
2021/07/15 01:36:03;;;;;;;4.70;2.23;;;;;;;14.91;94.63;100403.88;124944;1092;64311;-81
2021/07/15 01:38:42;;;;;;;5.00;2.70;;;;;;;14.88;94.91;100409.65;124998;1093;64292;-83
2021/07/15 01:41:23;;;;;;;6.03;2.50;;;;;;;14.84;94.97;100413.77;125059;1092;64371;-82
2021/07/15 01:43:55;;;;;;;5.50;2.37;;;;;;;14.82;95.26;100405.14;124985;1093;64302;-81
2021/07/15 01:46:23;;;;;;;2.80;2.27;;;;;;;14.81;95.31;100403.48;125133;1092;64351;-82
2021/07/15 01:48:51;;;;;;;6.13;2.33;;;;;;;14.78;95.09;100398.58;125466;1093;64296;-82
2021/07/15 01:51:19;;;;;;;7.57;2.63;;;;;;;14.76;95.48;100405.98;125032;1093;64219;-82
2021/07/15 01:53:49;;;;;;;6.83;2.27;;;;;;;14.76;95.88;100405.98;125036;1093;64299;-82
2021/07/15 01:56:17;;;;;;;8.70;2.40;;;;;;;14.76;95.65;100401.45;125002;1092;64332;-84
2021/07/15 01:58:47;;;;;;;3.33;2.57;;;;;;;14.77;95.78;100400.44;125040;1093;64332;-83
2021/07/15 02:01:14;;;;;;;7.70;2.73;;;;;;;14.75;95.56;100398.98;125165;1093;64275;-83
2021/07/15 02:03:50;;;;;;;4.90;2.40;;;;;;;14.73;95.98;100390.36;125098;1093;64403;-82
2021/07/15 02:06:19;;;;;;;5.58;2.40;;;;;;;14.68;95.71;100405.19;124978;1093;64314;-83
2021/07/15 02:08:48;;;;;;;3.20;2.50;;;;;;;14.65;95.70;100404.77;125114;1092;64215;-83
2021/07/15 02:11:16;;;;;;;5.90;2.63;;;;;;;14.63;95.91;100402.30;127709;1093;64183;-83
2021/07/15 02:13:45;;;;;;;5.00;2.53;;;;;;;14.62;95.76;100415.85;126292;1093;64217;-84
2021/07/15 02:16:14;;;;;;;4.43;2.53;;;;;;;14.60;95.85;100413.41;125161;1093;64295;-83
2021/07/15 02:18:45;;;;;;;6.27;2.77;;;;;;;14.61;95.98;100428.39;125023;1093;64299;-82
2021/07/15 02:21:14;;;;;;;4.83;2.23;;;;;;;14.62;96.23;100427.38;125125;1093;64179;-82
2021/07/15 02:23:43;;;;;;;12.80;2.85;;;;;;;14.64;96.04;100424.47;125128;1093;64439;-82
2021/07/15 02:26:12;;;;;;;6.03;2.00;;;;;;;14.65;96.05;100437.63;124971;1093;64323;-82
2021/07/15 02:28:40;;;;;;;9.73;2.07;;;;;;;14.67;95.86;100440.09;125032;1092;64303;-83
2021/07/15 02:31:13;;;;;;;11.20;4.10;;;;;;;14.65;95.72;100445.63;124941;1093;64358;-82
2021/07/15 02:33:47;;;;;;;8.17;2.83;;;;;;;14.65;96.06;100458.17;124888;1093;64225;-82
2021/07/15 02:36:18;;;;;;;4.53;1.93;;;;;;;14.64;95.80;100454.69;125047;1093;64802;-83
2021/07/15 02:38:48;;;;;;;3.23;2.17;;;;;;;14.63;96.15;100460.22;125119;1092;64283;-81
2021/07/15 02:41:15;;;;;;;8.30;2.87;;;;;;;14.61;96.08;100460.42;125124;1093;64291;-82
2021/07/15 02:43:43;;;;;;;5.30;2.90;;;;;;;14.60;95.97;100460.63;125023;1093;64310;-82
2021/07/15 02:46:10;;;;;;;6.77;3.00;;;;;;;14.59;96.02;100454.47;124956;1092;64355;-82
2021/07/15 02:48:37;;;;;;;7.17;2.90;;;;;;;14.59;95.95;100457.14;124981;1093;64359;-82
2021/07/15 02:51:04;;;;;;;11.07;2.97;;;;;;;14.59;96.12;100459.80;124985;1092;64355;-82
2021/07/15 02:53:31;;;;;;;7.80;2.67;;;;;;;14.59;96.28;100459.80;124942;1093;64307;-82
2021/07/15 02:56:35;;;;;;;7.03;2.90;;;;;;;14.60;96.45;100463.29;125125;1093;64272;-82
2021/07/15 02:59:11;;;;;;;6.60;2.80;;;;;;;14.59;96.79;100459.80;125056;1092;64211;-83
2021/07/15 03:01:48;;;;;;;3.87;2.40;;;;;;;14.59;97.30;100462.48;125143;1093;64729;-82
2021/07/15 03:04:26;;;;;;;5.63;2.93;;;;;;;14.60;97.24;100471.30;125169;1092;64310;-81
2021/07/15 03:06:55;;;;;;;8.80;3.03;;;;;;;14.60;97.06;100468.63;125132;1092;64313;-81
2021/07/15 03:09:25;;;;;;;5.60;3.10;;;;;;;14.60;97.08;100466.80;125133;1093;64569;-82
2021/07/15 03:12:06;;;;;;;6.10;2.07;;;;;;;14.61;97.39;100463.09;125097;1093;64405;-81
2021/07/15 03:14:38;;;;;;;3.27;2.23;;;;;;;14.62;97.08;100462.08;124997;1093;64411;-82
2021/07/15 03:17:12;;;;;;;7.70;3.30;;;;;;;14.64;97.13;100459.18;125057;1092;64323;-82
2021/07/15 03:19:41;;;;;;;;;;;;;;;14.66;97.11;100463.31;125094;1093;64313;-82
2021/07/15 03:22:10;;;;;;;8.97;3.47;;;;;;;14.68;97.44;100457.73;125058;1093;64240;-82
2021/07/15 03:24:51;;;;;;;9.33;3.00;;;;;;;14.71;97.03;100456.53;124924;1093;64182;-82
2021/07/15 03:27:20;;;;;;;6.43;2.73;;;;;;;14.75;97.19;100453.23;125146;1093;64345;-83
2021/07/15 03:29:49;;;;;;;4.73;2.73;;;;;;;14.77;96.87;100444.98;125125;1093;64314;-82
2021/07/15 03:32:18;;;;;;;6.43;3.03;;;;;;;14.79;97.07;100443.77;124891;1093;64293;-83
2021/07/15 03:34:46;;;;;;;4.50;2.20;;;;;;;14.81;96.60;100456.89;125012;1092;64287;-84
2021/07/15 03:37:15;;;;;;;6.57;2.50;;;;;;;14.82;96.82;100442.53;124961;1093;64296;-84
2021/07/15 03:39:45;;;;;;;5.97;2.50;;;;;;;14.82;96.85;100431.84;125141;1093;64361;-86
2021/07/15 03:42:13;;;;;;;3.57;2.43;;;;;;;14.83;96.77;100428.98;125898;1093;64390;-82
2021/07/15 03:44:41;;;;;;;10.70;2.75;;;;;;;14.86;96.78;100427.73;125209;1092;64313;-82
2021/07/15 03:47:08;;;;;;;3.70;2.07;;;;;;;14.88;96.57;100426.48;124899;1092;64304;-82
2021/07/15 03:49:36;;;;;;;5.90;2.30;;;;;;;14.92;96.67;100429.56;124955;1093;64288;-81
2021/07/15 03:52:03;;;;;;;4.00;2.00;;;;;;;14.95;96.48;100430.99;124925;1093;64208;-82
2021/07/15 03:54:31;;;;;;;4.67;2.37;;;;;;;14.96;96.09;100441.47;124896;1093;64275;-81
2021/07/15 03:56:59;;;;;;;6.50;2.40;;;;;;;14.97;96.15;100444.95;124870;1093;64323;-81
2021/07/15 03:59:29;;;;;;;10.07;2.63;;;;;;;14.99;96.54;100441.04;124918;1093;64320;-81
2021/07/15 04:02:05;;;;;;;7.73;2.40;;;;;;;15.01;95.86;100444.32;125536;1093;64261;-82
2021/07/15 04:04:34;;;;;;;7.50;3.93;;;;;;;15.06;96.27;100452.52;124858;1093;64438;-81
2021/07/15 04:07:05;;;;;;;6.30;2.77;;;;;;;15.11;96.35;100462.59;124854;1093;64315;-83
2021/07/15 04:09:35;;;;;;;8.03;2.47;;;;;;;15.16;96.48;100469.97;125012;1093;64218;-81
2021/07/15 04:12:05;;;;;;;7.63;2.97;;;;;;;15.21;96.09;100467.48;124899;1093;64304;-81
2021/07/15 04:14:38;;;;;;;7.73;2.77;;;;;;;15.25;96.26;100477.53;124991;1093;64286;-81
2021/07/15 04:17:09;;;;;;;5.33;2.80;;;;;;;15.31;96.01;100483.08;124810;1093;64265;-81
2021/07/15 04:19:37;;;;;;;5.93;2.10;;;;;;;15.34;96.07;100483.45;124827;1093;64313;-80
2021/07/15 04:22:09;;;;;;;5.40;1.93;;;;;;;15.40;95.91;100487.95;124840;1093;64751;-81
2021/07/15 04:24:38;;;;;;;5.70;2.25;;;;;;;15.45;95.82;100487.34;125105;1093;65080;-81
2021/07/15 04:27:07;;;;;;;3.80;1.33;;;;;;;15.50;95.75;100498.21;124854;1092;64858;-81
2021/07/15 04:29:35;;;;;;;3.43;2.00;;;;;;;15.53;95.25;100489.75;124905;1092;64429;-81
2021/07/15 04:32:09;;;;;;;6.57;2.03;;;;;;;15.59;95.14;100485.42;124851;1092;64401;-80
2021/07/15 04:34:37;;;;;;;8.07;2.97;;;;;;;15.65;95.13;100479.22;124879;1093;64877;-81
2021/07/15 04:37:05;;;;;;;3.30;1.30;;;;;;;15.73;94.60;100489.70;124947;1093;64224;-81
2021/07/15 04:39:34;;;;;;;4.07;1.97;;;;;;;15.81;94.56;100489.46;124780;1093;64354;-81
2021/07/15 04:42:03;;;;;;;6.30;2.10;;;;;;;15.92;94.24;100487.11;124857;1093;64275;-81
2021/07/15 04:44:34;;;;;;;3.33;1.97;;;;;;;15.99;93.99;100482.56;124900;1092;64305;-81
2021/07/15 04:47:03;;;;;;;3.47;1.50;;;;;;;16.04;93.33;100472.83;124907;1093;64310;-83
2021/07/15 04:49:33;;;;;;;2.90;1.67;;;;;;;16.12;93.04;100479.78;124833;1093;64160;-81
2021/07/15 04:52:01;;;;;;;4.73;1.73;;;;;;;16.19;92.84;100485.90;125463;1093;64211;-81
2021/07/15 04:54:30;;;;;;;8.53;2.13;;;;;;;16.29;92.82;100480.89;125317;1093;64365;-81
2021/07/15 04:56:58;;;;;;;4.57;2.10;;;;;;;16.46;92.50;100483.03;125023;1092;64294;-80
2021/07/15 04:59:26;;;;;;;7.13;2.40;;;;;;;16.63;91.54;100481.43;124919;1093;64396;-80
2021/07/15 05:01:53;;;;;;;2.63;1.53;;;;;;;16.76;90.96;100482.34;124847;1092;64310;-73
2021/07/15 05:04:21;;;;;;;9.17;2.63;;;;;;;16.84;90.70;100472.20;124713;1093;64268;-77
2021/07/15 05:06:48;;;;;;;7.67;2.33;;;;;;;16.91;90.13;100482.84;124655;1093;64407;-76
2021/07/15 05:09:15;;;;;;;3.60;1.77;;;;;;;16.94;89.62;100481.57;124629;1094;65162;-77
2021/07/15 05:11:42;;;;;;;3.07;1.63;;;;;;;16.97;89.47;100475.78;124765;1093;64311;-76
2021/07/15 05:14:09;;;;;;;4.43;1.80;;;;;;;17.00;89.69;100476.17;124711;1092;64288;-78
2021/07/15 05:16:36;;;;;;;3.70;1.80;;;;;;;17.07;89.67;100476.91;124661;1092;64307;-77
2021/07/15 05:19:04;;;;;;;6.67;1.50;;;;;;;17.11;88.78;100471.92;125166;1093;64219;-77
2021/07/15 05:21:31;;;;;;;5.70;2.73;;;;;;;17.15;88.55;100478.48;124668;1093;64409;-75
2021/07/15 05:23:58;;;;;;;4.47;1.63;;;;;;;17.21;87.78;100482.92;124760;1093;64355;-76
2021/07/15 05:26:25;;;;;;;5.27;1.67;;;;;;;17.23;87.65;100470.11;124635;1093;65527;-76
2021/07/15 05:28:54;;;;;;;2.70;1.70;;;;;;;17.32;88.43;100473.34;124667;1093;64358;-76
2021/07/15 05:31:22;;;;;;;6.10;1.47;;;;;;;17.41;87.31;100477.34;124720;1092;64329;-75
2021/07/15 05:33:49;;;;;;;5.10;2.37;;;;;;;17.53;87.66;100480.91;124632;1093;64283;-74
2021/07/15 05:36:16;;;;;;;3.27;1.40;;;;;;;17.61;86.61;100482.43;124696;1092;64912;-75
2021/07/15 05:38:43;;;;;;;3.00;1.30;;;;;;;17.68;85.74;100483.18;124651;1093;64217;-74
2021/07/15 05:41:11;;;;;;;4.80;1.90;;;;;;;17.78;85.96;100476.44;124674;1092;64284;-75
2021/07/15 05:43:38;;;;;;;2.73;1.47;;;;;;;17.88;85.19;100477.55;124579;1093;64284;-74
2021/07/15 05:46:05;;;;;;;3.67;1.50;;;;;;;17.97;84.29;100474.55;124684;1092;64215;-74
2021/07/15 05:48:32;;;;;;;5.30;1.43;;;;;;;18.06;84.36;100475.85;124675;1093;64287;-74
2021/07/15 05:50:59;;;;;;;5.67;1.70;;;;;;;18.16;83.92;100478.80;124638;1093;64230;-75
2021/07/15 05:53:26;;;;;;;2.30;1.30;;;;;;;18.23;82.88;100476.00;124650;1092;65405;-75
2021/07/15 05:55:53;;;;;;;2.93;1.40;;;;;;;18.30;82.41;100488.28;124615;1093;64412;-74
2021/07/15 05:58:20;;;;;;;4.00;1.33;;;;;;;18.34;82.70;100481.41;124640;1093;64291;-77
2021/07/15 06:00:47;;;;;;;12.20;1.73;;;;;;;18.41;81.10;100491.23;124662;1093;64217;-74
2021/07/15 06:03:14;;;;;;;4.35;1.70;;;;;;;18.45;81.59;100489.72;124684;1093;64218;-74
2021/07/15 06:05:41;;;;;;;4.50;1.30;;;;;;;18.51;82.25;100489.59;124629;1093;65284;-73
2021/07/15 06:08:08;;;;;;;6.83;1.20;;;;;;;18.60;81.50;100487.38;124534;1093;64470;-74
2021/07/15 06:10:35;;;;;;;5.27;1.50;;;;;;;18.70;81.05;100484.09;124519;1093;64211;-74
2021/07/15 06:13:03;;;;;;;3.70;1.27;;;;;;;18.76;81.24;100483.16;124616;1092;64291;-74
2021/07/15 06:15:30;;;;;;;4.17;1.67;;;;;;;18.80;80.71;100495.11;124665;1093;64299;-76
2021/07/15 06:17:57;;;;;;;5.97;1.53;;;;;;;18.84;79.65;100500.84;124690;1093;64327;-76
2021/07/15 06:20:25;;;;;;;2.30;1.20;;;;;;;18.89;79.82;100499.10;124655;1093;64438;-74
2021/07/15 06:22:52;;;;;;;18.60;11.40;;;;;;;18.97;79.59;100497.91;124661;1094;64275;-73
2021/07/15 06:25:19;;;;;;;16.75;9.65;;;;;;;19.05;79.99;100502.13;124712;1093;64335;-74
2021/07/15 06:27:46;;;;;;;30.00;21.05;;;;;;;19.11;79.11;100504.67;124709;1093;64310;-74
2021/07/15 06:30:14;;;;;;;38.00;25.03;;;;;;;19.17;78.94;100494.02;124684;1093;64397;-75
2021/07/15 06:32:41;;;;;;;3.53;2.33;;;;;;;19.25;79.14;100504.41;124666;1093;64219;-77
2021/07/15 06:35:15;;;;;;;7.40;1.55;;;;;;;19.34;78.07;100506.52;124699;1093;64310;-74
2021/07/15 06:37:47;;;;;;;11.57;7.63;;;;;;;19.43;77.97;100516.91;124634;1093;64303;-77
2021/07/15 06:40:14;;;;;;;12.70;7.07;;;;;;;19.53;77.76;100527.88;124876;1093;64310;-75
2021/07/15 06:42:41;;;;;;;4.77;1.53;;;;;;;19.63;77.24;100524.55;124662;1093;64287;-75
2021/07/15 06:45:10;;;;;;;1.70;1.10;;;;;;;19.71;77.49;100521.52;124615;1093;64333;-74
2021/07/15 06:47:38;;;;;;;6.80;4.17;;;;;;;19.81;77.39;100526.29;124779;1093;64211;-75
2021/07/15 06:50:08;;;;;;;4.70;1.00;;;;;;;19.89;76.43;100510.56;124515;1093;64291;-75
2021/07/15 06:52:36;;;;;;;1.87;1.10;;;;;;;19.95;76.41;100509.61;124547;1093;64314;-76
2021/07/15 06:55:06;;;;;;;4.23;1.20;;;;;;;20.06;75.71;100510.60;124551;1092;64283;-75
2021/07/15 06:57:35;;;;;;;5.10;1.03;;;;;;;20.12;75.49;100517.69;124679;1093;64288;-74
2021/07/15 07:00:11;;;;;;;3.80;2.25;;;;;;;20.16;74.14;100508.06;124564;1093;64798;-75
2021/07/15 07:02:40;;;;;;;19.27;10.27;;;;;;;20.19;75.23;100493.31;124720;1093;64413;-75
2021/07/15 07:05:08;;;;;;;6.55;4.25;;;;;;;20.24;73.89;100508.74;124676;1093;64221;-75
2021/07/15 07:07:36;;;;;;;52.70;32.10;;;;;;;20.31;74.58;100510.20;124687;1093;64294;-74
2021/07/15 07:10:09;;;;;;;2.03;0.93;;;;;;;20.37;72.09;100508.41;124730;1092;64362;-74
2021/07/15 07:12:37;;;;;;;4.23;0.90;;;;;;;20.44;71.93;100519.84;124700;1093;64304;-77
2021/07/15 07:15:11;;;;;;;4.45;2.55;;;;;;;20.50;70.93;100528.83;124736;1092;64329;-74
2021/07/15 07:17:39;;;;;;;3.00;1.10;;;;;;;20.57;70.86;100524.08;124969;1093;64374;-74
2021/07/15 07:20:09;;;;;;;1.70;0.63;;;;;;;20.63;69.72;100523.13;124620;1093;64659;-74
2021/07/15 07:22:36;;;;;;;12.77;7.83;;;;;;;20.66;69.59;100522.66;124654;1093;64455;-73
2021/07/15 07:25:09;;;;;;;13.23;8.80;;;;;;;20.74;70.58;100530.34;124660;1093;64303;-73
2021/07/15 07:27:37;;;;;;;4.93;3.10;;;;;;;20.85;70.41;100530.49;124656;1093;64288;-74
2021/07/15 07:30:07;;;;;;;1.83;0.93;;;;;;;20.98;71.05;100535.53;124651;1093;64224;-74
2021/07/15 07:32:34;;;;;;;4.10;1.15;;;;;;;21.16;70.51;100540.63;124609;1093;64291;-74
2021/07/15 07:35:03;;;;;;;2.23;0.87;;;;;;;21.33;69.70;100545.16;124506;1093;64371;-74
2021/07/15 07:37:31;;;;;;;2.90;1.20;;;;;;;21.33;68.24;100545.97;124680;1093;64296;-74
2021/07/15 07:39:59;;;;;;;2.90;1.27;;;;;;;21.26;68.19;100541.84;124639;1093;64777;-73
2021/07/15 07:42:27;;;;;;;19.15;13.70;;;;;;;21.21;68.23;100545.30;124589;1093;64295;-75
2021/07/15 07:44:54;;;;;;;2.03;1.50;;;;;;;21.21;68.13;100547.16;124721;1093;64412;-74
2021/07/15 07:47:21;;;;;;;1.53;1.00;;;;;;;21.22;67.66;100535.31;124610;1093;64265;-74
2021/07/15 07:49:48;;;;;;;9.20;5.37;;;;;;;21.40;68.11;100537.72;124616;1093;64307;-75
2021/07/15 07:52:15;;;;;;;1.77;0.87;;;;;;;21.68;68.00;100539.42;124793;1093;64346;-74
2021/07/15 07:54:42;;;;;;;7.63;4.67;;;;;;;21.93;66.85;100557.80;124540;1093;64233;-75
2021/07/15 07:57:10;;;;;;;0.70;0.50;;;;;;;22.16;64.05;100555.84;124602;1093;64291;-76
2021/07/15 07:59:38;;;;;;;1.57;0.90;;;;;;;22.32;63.39;100552.26;124595;1093;64335;-75
2021/07/15 08:02:05;;;;;;;1.23;0.53;;;;;;;22.37;62.51;100556.89;125123;1093;64409;-74
2021/07/15 08:04:33;;;;;;;5.73;2.40;;;;;;;22.57;63.22;100561.67;124656;1093;64330;-75
2021/07/15 08:07:02;;;;;;;6.70;2.73;;;;;;;22.78;60.59;100565.31;124670;1093;64307;-78
2021/07/15 08:09:31;;;;;;;1.40;0.80;;;;;;;22.95;58.78;100566.00;124606;1093;64221;-75
2021/07/15 08:11:58;;;;;;;2.00;1.07;;;;;;;23.04;58.11;100568.26;124659;1092;64457;-74
2021/07/15 08:14:26;;;;;;;31.83;20.90;;;;;;;23.11;57.82;100561.52;124591;1093;64368;-75
2021/07/15 08:16:53;;;;;;;3.10;1.87;;;;;;;23.28;59.39;100563.24;124661;1093;64307;-74
2021/07/15 08:19:21;;;;;;;1.87;0.47;;;;;;;23.47;58.46;100559.00;124610;1093;64290;-75
2021/07/15 08:21:49;;;;;;;1.17;0.73;;;;;;;23.65;58.82;100568.53;124649;1093;64320;-74
2021/07/15 08:24:16;;;;;;;5.33;3.43;;;;;;;23.90;57.94;100567.84;124851;1092;64307;-73
2021/07/15 08:26:43;;;;;;;6.80;4.70;;;;;;;24.14;57.42;100567.34;124617;1093;64336;-75
2021/07/15 08:29:10;;;;;;;1.70;0.60;;;;;;;24.22;56.82;100577.66;124516;1093;64378;-75
2021/07/15 08:31:38;;;;;;;0.90;0.40;;;;;;;24.26;57.86;100576.04;124603;1093;64311;-75
2021/07/15 08:34:05;;;;;;;2.00;0.97;;;;;;;24.30;55.90;100585.27;124639;1093;64263;-76
2021/07/15 08:36:32;;;;;;;6.07;3.47;;;;;;;24.33;56.52;100592.88;124672;1093;64307;-76
2021/07/15 08:39:00;;;;;;;2.93;1.80;;;;;;;24.37;55.04;100587.70;124631;1093;64288;-75
2021/07/15 08:41:27;;;;;;;8.30;4.53;;;;;;;24.47;56.03;100584.20;124670;1093;64352;-75
2021/07/15 08:43:54;;;;;;;1.33;0.80;;;;;;;24.43;55.23;100584.73;124687;1093;64240;-76
2021/07/15 08:46:24;;;;;;;15.43;9.87;;;;;;;24.48;55.30;100585.81;124668;1092;64332;-76
2021/07/15 08:48:52;;;;;;;2.07;0.50;;;;;;;24.35;54.00;100585.25;124703;1092;64310;-76
2021/07/15 08:51:19;;;;;;;4.83;2.10;;;;;;;24.40;55.85;100581.77;124595;1093;64294;-76
2021/07/15 08:53:48;;;;;;;1.33;0.60;;;;;;;24.48;54.37;100580.39;124634;1093;64284;-76
2021/07/15 08:59:02;;;;;;;1.63;0.60;;;;;;;24.40;52.64;100593.41;124672;1093;64424;-75
2021/07/15 09:01:34;;;;;;;1.00;0.60;;;;;;;24.18;53.82;100584.70;124614;1093;64448;-74
2021/07/15 09:04:03;;;;;;;2.83;0.93;;;;;;;24.07;55.34;100593.90;124789;1093;64285;-74
2021/07/15 09:06:30;;;;;;;10.63;4.43;;;;;;;23.95;55.45;100584.13;124857;1093;64265;-76
2021/07/15 09:08:58;;;;;;;1.07;0.60;;;;;;;23.80;54.75;100582.19;124708;1093;64220;-76
2021/07/15 09:11:25;;;;;;;4.20;1.67;;;;;;;23.71;54.98;100582.91;124649;1093;64293;-76
2021/07/15 09:13:52;;;;;;;3.77;1.87;;;;;;;23.77;55.45;100574.57;124630;1093;64387;-74
2021/07/15 09:16:21;;;;;;;18.73;11.93;;;;;;;23.85;55.25;100586.80;124729;1093;64243;-73
2021/07/15 09:18:58;;;;;;;0.83;0.50;;;;;;;23.90;53.47;100581.38;125199;1093;64339;-73
2021/07/15 09:21:31;;;;;;;11.40;8.03;;;;;;;23.93;54.84;100583.58;124664;1093;64354;-73
2021/07/15 09:24:01;;;;;;;3.60;2.30;;;;;;;24.10;55.88;100577.09;124683;1093;64223;-73
2021/07/15 09:26:30;;;;;;;11.07;4.50;;;;;;;24.27;55.01;100583.11;124889;1093;64326;-73
2021/07/15 09:29:15;;;;;;;4.90;3.20;;;;;;;24.33;53.38;100589.33;124713;1093;64393;-73
2021/07/15 09:31:56;;;;;;;12.40;7.30;;;;;;;24.34;53.14;100594.48;124684;1092;64313;-75
2021/07/15 09:34:26;;;;;;;6.97;4.53;;;;;;;24.40;51.82;100585.28;124688;1092;64291;-76
2021/07/15 09:36:54;;;;;;;1.40;0.60;;;;;;;24.50;53.75;100575.55;124670;1092;64307;-76
2021/07/15 09:39:28;;;;;;;16.63;9.70;;;;;;;24.75;54.58;100575.53;124831;1093;64323;-74
2021/07/15 09:42:19;;;;;;;2.63;0.50;;;;;;;25.03;51.96;100576.04;124789;1093;64287;-74
2021/07/15 09:44:50;;;;;;;1.53;0.60;;;;;;;25.23;51.17;100572.52;124635;1093;64314;-74
2021/07/15 09:47:44;;;;;;;1.33;1.10;;;;;;;25.57;53.31;100567.23;124618;1093;64221;-75
2021/07/15 09:50:17;;;;;;;1.68;0.53;;;;;;;25.91;49.34;100577.41;124681;1093;65018;-75
2021/07/15 09:52:45;;;;;;;1.60;0.77;;;;;;;25.74;49.29;100572.31;124677;1093;64349;-73
2021/07/15 09:55:23;;;;;;;8.93;6.10;;;;;;;25.59;50.27;100565.05;124830;1093;64345;-73
2021/07/15 09:58:05;;;;;;;4.47;2.90;;;;;;;25.53;50.28;100568.88;124691;1093;64265;-74
2021/07/15 10:00:46;;;;;;;7.07;4.10;;;;;;;25.39;51.08;100570.55;124671;1092;64285;-73
2021/07/15 10:03:15;;;;;;;3.90;2.33;;;;;;;25.26;51.32;100558.38;124757;1092;64313;-75
2021/07/15 10:05:55;;;;;;;2.67;1.10;;;;;;;25.14;51.13;100557.83;124741;1093;64400;-78
2021/07/15 10:08:29;;;;;;;3.50;0.80;;;;;;;24.92;51.06;100571.72;124706;1093;64313;-76
2021/07/15 10:11:28;;;;;;;1.97;0.60;;;;;;;24.74;51.67;100570.41;124640;1092;64296;-74
2021/07/15 10:14:07;;;;;;;2.80;0.60;;;;;;;24.71;52.39;100571.73;124660;1092;64368;-75
2021/07/15 10:16:42;;;;;;;1.20;0.60;;;;;;;24.71;51.78;100577.16;124925;1093;64294;-75
2021/07/15 10:19:21;;;;;;;0.80;0.60;;;;;;;24.84;50.51;100578.51;124637;1093;64399;-72
2021/07/15 10:22:01;;;;;;;1.07;0.50;;;;;;;24.89;50.41;100583.14;124698;1092;64265;-72
2021/07/15 10:24:29;;;;;;;1.97;0.93;;;;;;;25.06;51.04;100582.84;124744;1093;65065;-73
2021/07/15 10:26:59;;;;;;;2.13;1.10;;;;;;;25.25;50.12;100572.21;124795;1093;64288;-72
2021/07/15 10:29:26;;;;;;;2.87;0.70;;;;;;;25.48;49.75;100571.63;124702;1093;64854;-74
2021/07/15 10:31:54;;;;;;;1.13;0.70;;;;;;;25.72;49.15;100582.64;124701;1093;64377;-75
2021/07/15 10:34:24;;;;;;;1.40;0.57;;;;;;;25.87;47.39;100587.19;124862;1093;64409;-75
2021/07/15 10:36:57;;;;;;;1.53;0.60;;;;;;;25.76;46.67;100588.34;124720;1093;64317;-74
2021/07/15 10:39:28;;;;;;;2.50;0.60;;;;;;;25.61;47.72;100589.22;124767;1093;64291;-75
2021/07/15 10:41:57;;;;;;;6.00;4.33;;;;;;;25.54;47.67;100585.97;124729;1093;64288;-75
2021/07/15 10:44:28;;;;;;;3.10;1.10;;;;;;;25.79;46.55;100590.48;124838;1093;64291;-75
2021/07/15 10:46:58;;;;;;;27.97;20.67;;;;;;;26.11;48.30;100598.22;124700;1092;64314;-75
2021/07/15 10:49:25;;;;;;;2.87;1.87;;;;;;;26.44;46.15;100590.39;124630;1093;64314;-76
2021/07/15 10:51:55;;;;;;;2.27;1.20;;;;;;;26.55;44.92;100591.93;124701;1093;64299;-75
2021/07/15 10:54:23;;;;;;;4.30;0.90;;;;;;;26.66;45.79;100586.44;124748;1093;64731;-73
2021/07/15 10:56:52;;;;;;;3.07;1.80;;;;;;;26.68;45.93;100586.97;124782;1093;64355;-75
2021/07/15 10:59:29;;;;;;;4.87;1.50;;;;;;;26.42;46.46;100593.39;124633;1093;64310;-76
2021/07/15 11:02:01;;;;;;;11.50;7.93;;;;;;;26.40;47.46;100595.58;124729;1092;64304;-75
2021/07/15 11:04:35;;;;;;;2.03;1.43;;;;;;;26.52;47.77;100603.39;124723;1093;64288;-75
2021/07/15 11:07:23;;;;;;;2.27;1.70;;;;;;;26.58;46.61;100606.89;124705;1093;64359;-74
2021/07/15 11:09:54;;;;;;;3.30;1.40;;;;;;;26.57;46.59;100606.09;124634;1093;64365;-75
2021/07/15 11:12:35;;;;;;;3.63;1.00;;;;;;;26.66;45.69;100609.02;125321;1093;64382;-74
2021/07/15 11:15:08;;;;;;;2.03;0.80;;;;;;;26.80;45.68;100593.66;124734;1093;64313;-76
2021/07/15 11:17:49;;;;;;;3.70;1.20;;;;;;;26.84;44.77;100605.59;124802;1093;64272;-74
2021/07/15 11:20:27;;;;;;;2.70;1.10;;;;;;;26.93;44.78;100600.34;124689;1092;64246;-74
2021/07/15 11:22:58;;;;;;;1.40;0.80;;;;;;;27.13;44.92;100603.95;124622;1092;64220;-75
2021/07/15 11:25:28;;;;;;;2.67;0.80;;;;;;;27.12;44.88;100605.88;124647;1093;64296;-76
2021/07/15 11:28:03;;;;;;;2.17;0.80;;;;;;;27.15;44.89;100609.92;124639;1093;64601;-75
2021/07/15 11:30:33;;;;;;;2.30;1.17;;;;;;;27.12;44.80;100611.31;124889;1093;64429;-74
2021/07/15 11:35:53;;;;;;;2.73;0.97;;;;;;;27.21;43.73;100619.67;124595;1093;64285;-74
2021/07/15 11:38:30;;;;;;;3.03;1.60;;;;;;;27.03;43.95;100610.30;124552;1093;64793;-74